createdAt,value
2022-08-26T00:01:53.862Z,97246.94
2022-08-26T00:04:22.162Z,97246.81
2022-08-26T00:06:50.184Z,97248.41
2022-08-26T00:09:19.855Z,97242.69
2022-08-26T00:11:47.840Z,97242.44
2022-08-26T00:14:15.941Z,97246.69
2022-08-26T00:16:47.908Z,97246.69
2022-08-26T00:19:17.428Z,97247.34
2022-08-26T00:21:45.716Z,97256.00
2022-08-26T00:24:13.669Z,97250.53
2022-08-26T00:26:43.512Z,97246.00
2022-08-26T00:29:12.566Z,97248.72
2022-08-26T00:31:41.125Z,97250.34
2022-08-26T00:34:11.232Z,97253.75
2022-08-26T00:36:40.933Z,97251.66
2022-08-26T00:39:09.050Z,97254.63
2022-08-26T00:41:39.137Z,97251.75
2022-08-26T00:44:08.628Z,97245.50
2022-08-26T00:46:38.446Z,97248.44
2022-08-26T00:49:11.971Z,97251.84
2022-08-26T00:51:46.215Z,97251.63
2022-08-26T00:54:14.517Z,97251.66
2022-08-26T00:56:45.204Z,97248.53
2022-08-26T00:59:20.718Z,97247.94
2022-08-26T01:01:48.771Z,97241.00
2022-08-26T01:05:03.401Z,97246.63
2022-08-26T01:14:15.295Z,97253.00
2022-08-26T02:00:33.530Z,97267.03
2022-08-26T02:03:38.752Z,97270.47
2022-08-26T02:06:10.641Z,97270.63
2022-08-26T02:12:26.176Z,97265.81
2022-08-26T02:14:55.124Z,97274.44
2022-08-26T02:17:25.803Z,97276.94
2022-08-26T02:19:53.647Z,97272.94
2022-08-26T02:22:24.621Z,97267.75
2022-08-26T02:24:53.795Z,97278.22
2022-08-26T02:27:32.837Z,97272.97
2022-08-26T02:30:06.155Z,97270.25
2022-08-26T02:32:35.798Z,97280.56
2022-08-26T02:35:03.800Z,97269.63
2022-08-26T02:37:32.239Z,97265.84
2022-08-26T02:40:02.138Z,97277.19
2022-08-26T02:42:31.081Z,97277.00
2022-08-26T02:44:58.913Z,97284.97
2022-08-26T02:47:28.984Z,97284.78
2022-08-26T02:49:58.416Z,97280.16
2022-08-26T02:52:26.504Z,97279.31
2022-08-26T02:54:56.232Z,97279.75
2022-08-26T02:57:24.131Z,97278.66
2022-08-26T02:59:52.199Z,97277.59
2022-08-26T03:02:20.024Z,97282.00
2022-08-26T03:04:58.110Z,97288.28
2022-08-26T03:07:36.045Z,97287.38
2022-08-26T03:10:08.259Z,97289.09
2022-08-26T03:12:37.048Z,97291.78
2022-08-26T03:15:16.411Z,97290.50
2022-08-26T03:17:46.217Z,97288.16
2022-08-26T03:20:17.544Z,97291.91
2022-08-26T03:22:46.787Z,97290.47
2022-08-26T03:25:16.367Z,97289.53
2022-08-26T03:27:44.307Z,97285.41
2022-08-26T03:30:30.248Z,97291.91
2022-08-26T03:32:58.400Z,97289.44
2022-08-26T03:35:26.860Z,97284.47
2022-08-26T03:37:56.091Z,97286.59
2022-08-26T03:40:24.035Z,97280.44
2022-08-26T03:42:57.094Z,97274.28
2022-08-26T03:45:26.326Z,97283.50
2022-08-26T03:47:54.557Z,97291.59
2022-08-26T03:50:26.068Z,97287.59
2022-08-26T03:52:56.027Z,97297.59
2022-08-26T03:55:25.000Z,97303.53
2022-08-26T03:57:52.786Z,97301.34
2022-08-26T04:00:21.035Z,97297.63
2022-08-26T04:02:51.228Z,97300.34
2022-08-26T04:05:21.759Z,97296.47
2022-08-26T04:07:50.561Z,97301.72
2022-08-26T04:10:22.167Z,97303.00
2022-08-26T04:12:58.988Z,97307.09
2022-08-26T04:15:27.334Z,97309.88
2022-08-26T04:17:55.807Z,97307.16
2022-08-26T04:20:24.004Z,97303.06
2022-08-26T04:22:51.929Z,97304.50
2022-08-26T04:25:22.559Z,97301.38
2022-08-26T04:27:52.151Z,97304.28
2022-08-26T04:30:20.621Z,97292.13
2022-08-26T04:32:49.145Z,97301.34
2022-08-26T04:35:17.536Z,97301.09
2022-08-26T04:37:45.351Z,97296.09
2022-08-26T04:40:13.644Z,97298.78
2022-08-26T04:42:43.680Z,97301.50
2022-08-26T04:45:12.583Z,97304.50
2022-08-26T04:47:40.455Z,97303.13
2022-08-26T04:50:10.960Z,97303.75
2022-08-26T04:52:38.986Z,97305.47
2022-08-26T04:55:08.451Z,97307.50
2022-08-26T04:57:36.865Z,97313.19
2022-08-26T05:00:07.577Z,97329.41
2022-08-26T05:02:36.256Z,97319.88
2022-08-26T05:05:05.289Z,97326.34
2022-08-26T05:07:33.200Z,97335.59
2022-08-26T05:10:01.462Z,97339.94
2022-08-26T05:12:29.446Z,97338.75
2022-08-26T05:14:57.609Z,97341.03
2022-08-26T05:17:27.218Z,97343.06
2022-08-26T05:19:55.539Z,97338.19
2022-08-26T05:22:23.379Z,97337.88
2022-08-26T05:24:51.216Z,97336.72
2022-08-26T05:27:19.572Z,97331.63
2022-08-26T05:29:48.207Z,97340.72
2022-08-26T05:32:22.452Z,97341.44
2022-08-26T05:34:55.826Z,97351.53
2022-08-26T05:37:23.706Z,97358.28
2022-08-26T05:39:51.583Z,97351.28
2022-08-26T05:42:19.971Z,97356.44
2022-08-26T05:44:53.847Z,97362.94
2022-08-26T05:47:24.379Z,97354.25
2022-08-26T05:49:52.277Z,97360.13
2022-08-26T05:52:22.255Z,97361.09
2022-08-26T05:54:53.875Z,97358.97
2022-08-26T05:57:23.647Z,97362.56
2022-08-26T05:59:52.780Z,97361.94
2022-08-26T06:02:20.997Z,97365.19
2022-08-26T06:04:48.887Z,97370.31
2022-08-26T06:07:17.130Z,97367.97
2022-08-26T06:09:48.027Z,97368.84
2022-08-26T06:12:22.888Z,97368.63
2022-08-26T06:14:53.264Z,97371.34
2022-08-26T06:17:21.936Z,97371.66
2022-08-26T06:19:51.341Z,97371.19
2022-08-26T06:22:36.299Z,97373.19
2022-08-26T06:25:24.098Z,97358.69
2022-08-26T06:27:52.795Z,97362.22
2022-08-26T06:30:20.852Z,97370.38
2022-08-26T06:32:50.467Z,97365.13
2022-08-26T06:35:18.266Z,97373.81
2022-08-26T06:37:46.695Z,97363.22
2022-08-26T06:40:15.860Z,97368.09
2022-08-26T06:42:43.711Z,97375.13
2022-08-26T06:45:11.829Z,97376.22
2022-08-26T06:47:39.703Z,97376.19
2022-08-26T06:50:08.286Z,97375.38
2022-08-26T06:52:36.072Z,97377.22
2022-08-26T06:55:03.968Z,97378.00
2022-08-26T06:57:34.870Z,97382.72
2022-08-26T07:00:10.297Z,97379.38
2022-08-26T07:02:38.722Z,97390.44
2022-08-26T07:05:07.687Z,97393.44
2022-08-26T07:07:36.097Z,97382.41
2022-08-26T07:10:04.559Z,97377.84
2022-08-26T07:12:33.865Z,97379.94
2022-08-26T07:15:02.070Z,97376.59
2022-08-26T07:17:30.286Z,97373.22
2022-08-26T07:19:58.155Z,97384.22
2022-08-26T07:22:27.607Z,97385.47
2022-08-26T07:24:55.470Z,97389.53
2022-08-26T07:27:23.727Z,97381.69
2022-08-26T07:29:53.075Z,97388.53
2022-08-26T07:32:21.030Z,97384.97
2022-08-26T07:34:50.840Z,97387.78
2022-08-26T07:37:18.706Z,97386.16
2022-08-26T07:39:48.050Z,97385.72
2022-08-26T07:42:18.426Z,97395.97
2022-08-26T07:44:46.502Z,97401.00
2022-08-26T07:47:24.770Z,97405.75
2022-08-26T07:49:53.388Z,97404.81
2022-08-26T07:52:26.210Z,97402.72
2022-08-26T07:54:55.781Z,97402.06
2022-08-26T07:57:24.234Z,97406.94
2022-08-26T07:59:52.264Z,97409.44
2022-08-26T08:02:24.460Z,97413.03
2022-08-26T08:04:52.828Z,97417.44
2022-08-26T08:07:20.740Z,97411.78
2022-08-26T08:09:53.734Z,97411.97
2022-08-26T08:12:21.613Z,97409.44
2022-08-26T08:14:50.024Z,97406.94
2022-08-26T08:17:18.042Z,97415.78
2022-08-26T08:19:48.857Z,97425.22
2022-08-26T08:22:19.755Z,97410.28
2022-08-26T08:24:49.918Z,97421.22
2022-08-26T08:27:23.741Z,97420.63
2022-08-26T08:29:54.383Z,97420.81
2022-08-26T08:32:22.967Z,97430.25
2022-08-26T08:34:53.038Z,97426.25
2022-08-26T08:37:21.321Z,97425.22
2022-08-26T08:39:49.309Z,97424.22
2022-08-26T08:42:38.642Z,97416.63
2022-08-26T08:45:09.839Z,97411.78
2022-08-26T08:48:15.220Z,97409.44
2022-08-26T08:50:52.440Z,97413.84
2022-08-26T08:53:22.692Z,97409.88
2022-08-26T08:55:58.252Z,97413.81
2022-08-26T08:58:28.843Z,97412.53
2022-08-26T09:01:02.445Z,97409.22
2022-08-26T09:03:38.680Z,97412.50
2022-08-26T09:06:17.311Z,97420.50
2022-08-26T09:08:50.754Z,97406.56
2022-08-26T09:11:19.194Z,97408.22
2022-08-26T09:13:50.221Z,97408.69
2022-08-26T09:16:20.447Z,97404.22
2022-08-26T09:18:59.200Z,97416.06
2022-08-26T09:21:29.925Z,97417.75
2022-08-26T09:23:57.869Z,97411.03
2022-08-26T09:26:29.276Z,97412.47
2022-08-26T09:29:00.081Z,97414.03
2022-08-26T09:31:29.174Z,97417.19
2022-08-26T09:34:09.320Z,97419.81
2022-08-26T09:36:41.418Z,97416.78
2022-08-26T09:39:25.481Z,97408.13
2022-08-26T09:42:03.373Z,97412.09
2022-08-26T09:44:31.715Z,97411.81
2022-08-26T09:47:04.017Z,97404.63
2022-08-26T09:49:36.278Z,97413.38
2022-08-26T09:52:11.383Z,97402.78
2022-08-26T09:54:39.956Z,97408.34
2022-08-26T09:57:20.474Z,97397.25
2022-08-26T09:59:49.415Z,97407.91
2022-08-26T10:02:28.608Z,97393.97
2022-08-26T10:04:57.968Z,97391.81
2022-08-26T10:07:40.483Z,97393.44
2022-08-26T10:10:10.783Z,97391.34
2022-08-26T10:12:40.576Z,97396.78
2022-08-26T10:15:10.257Z,97394.38
2022-08-26T10:17:46.410Z,97390.84
2022-08-26T10:20:23.841Z,97378.63
2022-08-26T10:22:58.974Z,97393.66
2022-08-26T10:25:29.675Z,97377.53
2022-08-26T10:28:02.274Z,97381.91
2022-08-26T10:30:33.349Z,97387.75
2022-08-26T10:33:12.846Z,97387.00
2022-08-26T10:35:49.642Z,97382.72
2022-08-26T10:38:20.661Z,97390.91
2022-08-26T10:40:53.174Z,97390.50
2022-08-26T10:43:23.567Z,97383.34
2022-08-26T10:45:54.604Z,97372.66
2022-08-26T10:48:25.611Z,97382.47
2022-08-26T10:51:04.294Z,97377.66
2022-08-26T10:53:38.665Z,97380.88
2022-08-26T10:56:19.311Z,97390.38
2022-08-26T10:58:58.819Z,97399.16
2022-08-26T11:01:46.959Z,97383.38
2022-08-26T11:04:29.512Z,97388.78
2022-08-26T11:07:51.454Z,97396.94
2022-08-26T11:11:05.418Z,97392.06
2022-08-26T11:14:05.523Z,97387.59
2022-08-26T11:16:35.496Z,97389.44
2022-08-26T11:19:09.294Z,97389.31
2022-08-26T11:22:06.196Z,97396.34
2022-08-26T11:25:11.450Z,97394.63
2022-08-26T11:28:06.582Z,97393.34
2022-08-26T11:30:56.896Z,97391.44
2022-08-26T11:33:59.865Z,97386.19
2022-08-26T11:36:58.685Z,97377.59
2022-08-26T11:39:33.337Z,97387.22
2022-08-26T11:42:06.892Z,97395.16
2022-08-26T11:44:49.397Z,97387.94
2022-08-26T11:47:29.310Z,97391.34
2022-08-26T11:50:15.290Z,97383.75
2022-08-26T11:52:52.243Z,97387.59
2022-08-26T11:55:20.270Z,97377.50
2022-08-26T11:57:52.578Z,97376.03
2022-08-26T12:00:22.475Z,97375.16
2022-08-26T12:02:52.780Z,97378.88
2022-08-26T12:05:25.040Z,97380.19
2022-08-26T12:07:55.209Z,97386.16
2022-08-26T12:10:29.510Z,97381.59
2022-08-26T12:12:59.075Z,97383.06
2022-08-26T12:15:27.737Z,97376.69
2022-08-26T12:17:59.342Z,97378.06
2022-08-26T12:20:46.083Z,97373.72
2022-08-26T12:23:24.656Z,97392.25
2022-08-26T12:25:53.081Z,97386.47
2022-08-26T12:28:21.611Z,97380.22
2022-08-26T12:31:01.729Z,97377.66
2022-08-26T12:33:31.115Z,97377.03
2022-08-26T12:35:59.517Z,97381.53
2022-08-26T12:38:27.534Z,97379.63
2022-08-26T12:40:55.835Z,97386.66
2022-08-26T12:43:43.309Z,97386.50
2022-08-26T12:46:12.705Z,97379.13
2022-08-26T12:48:44.262Z,97386.03
2022-08-26T12:51:19.849Z,97388.81
2022-08-26T12:53:47.741Z,97390.22
2022-08-26T12:56:38.801Z,97381.84
2022-08-26T12:59:11.198Z,97388.47
2022-08-26T13:01:43.022Z,97386.72
2022-08-26T13:04:37.526Z,97386.03
2022-08-26T13:07:16.201Z,97381.66
2022-08-26T13:09:44.087Z,97384.56
2022-08-26T13:12:12.767Z,97381.13
2022-08-26T13:14:40.594Z,97382.28
2022-08-26T13:17:09.311Z,97375.28
2022-08-26T13:19:38.626Z,97377.31
2022-08-26T13:22:07.644Z,97385.75
2022-08-26T13:24:36.718Z,97382.00
2022-08-26T13:27:05.499Z,97388.13
2022-08-26T13:29:33.331Z,97385.00
2022-08-26T13:32:07.111Z,97384.63
2022-08-26T13:34:47.119Z,97390.72
2022-08-26T13:37:22.223Z,97388.25
2022-08-26T13:39:59.378Z,97383.84
2022-08-26T13:42:27.601Z,97390.31
2022-08-26T13:44:57.927Z,97396.44
2022-08-26T13:47:27.687Z,97383.81
2022-08-26T13:49:57.539Z,97377.69
2022-08-26T13:52:30.360Z,97383.13
2022-08-26T13:54:58.814Z,97376.97
2022-08-26T13:57:28.034Z,97369.47
2022-08-26T13:59:57.145Z,97371.47
2022-08-26T14:02:25.357Z,97367.91
2022-08-26T14:04:53.823Z,97378.56
2022-08-26T14:07:23.564Z,97362.88
2022-08-26T14:09:51.529Z,97363.09
2022-08-26T14:12:19.575Z,97365.06
2022-08-26T14:14:47.668Z,97378.25
2022-08-26T14:17:15.920Z,97371.13
2022-08-26T14:19:49.394Z,97375.56
2022-08-26T14:22:24.687Z,97371.31
2022-08-26T14:24:53.977Z,97363.09
2022-08-26T14:27:21.885Z,97374.03
2022-08-26T14:29:50.069Z,97373.88
2022-08-26T14:32:21.546Z,97381.84
2022-08-26T14:34:50.610Z,97388.41
2022-08-26T14:37:18.746Z,97391.81
2022-08-26T14:39:48.309Z,97390.75
2022-08-26T14:42:18.396Z,97376.06
2022-08-26T14:44:50.292Z,97378.16
2022-08-26T14:47:18.467Z,97384.44
2022-08-26T14:49:48.079Z,97374.94
2022-08-26T14:52:15.968Z,97366.88
2022-08-26T14:54:42.845Z,97382.50
2022-08-26T14:57:11.819Z,97371.09
2022-08-26T14:59:42.026Z,97373.06
2022-08-26T15:02:13.924Z,97374.53
2022-08-26T15:04:59.293Z,97363.94
2022-08-26T15:07:28.866Z,97359.88
2022-08-26T15:09:56.700Z,97360.91
2022-08-26T15:12:24.612Z,97361.22
2022-08-26T15:14:53.928Z,97357.44
2022-08-26T15:17:21.849Z,97353.25
2022-08-26T15:19:50.183Z,97351.81
2022-08-26T15:22:18.044Z,97353.19
2022-08-26T15:24:45.895Z,97363.47
2022-08-26T15:27:13.755Z,97355.44
2022-08-26T15:29:41.695Z,97353.13
2022-08-26T15:32:11.308Z,97360.91
2022-08-26T15:34:39.327Z,97358.22
2022-08-26T15:37:10.581Z,97350.03
2022-08-26T15:39:46.001Z,97344.13
2022-08-26T15:42:23.598Z,97350.66
2022-08-26T15:44:55.086Z,97346.25
2022-08-26T15:47:24.818Z,97351.50
2022-08-26T15:49:52.701Z,97353.59
2022-08-26T15:52:20.504Z,97353.22
2022-08-26T15:54:48.628Z,97345.81
2022-08-26T15:57:19.186Z,97358.22
2022-08-26T15:59:48.190Z,97346.06
2022-08-26T16:02:16.101Z,97349.00
2022-08-26T16:04:45.561Z,97339.97
2022-08-26T16:07:13.566Z,97340.16
2022-08-26T16:09:41.497Z,97345.22
2022-08-26T16:12:09.714Z,97344.78
2022-08-26T16:14:37.691Z,97347.53
2022-08-26T16:17:05.590Z,97353.41
2022-08-26T16:19:33.441Z,97355.91
2022-08-26T16:22:02.780Z,97358.66
2022-08-26T16:24:30.980Z,97368.72
2022-08-26T16:27:02.827Z,97356.97
2022-08-26T16:33:13.226Z,97365.34
2022-08-26T16:38:26.006Z,97369.47
2022-08-26T16:40:54.042Z,97381.22
2022-08-26T16:43:21.909Z,97378.81
2022-08-26T16:45:49.758Z,97372.78
2022-08-26T16:48:18.084Z,97382.00
2022-08-26T16:50:46.000Z,97376.94
2022-08-26T16:55:46.779Z,97396.25
2022-08-26T16:58:17.934Z,97400.22
2022-08-26T17:00:47.486Z,97409.88
2022-08-26T17:03:15.962Z,97403.53
2022-08-26T17:05:44.293Z,97404.16
2022-08-26T17:08:13.846Z,97403.53
2022-08-26T17:10:51.374Z,97397.69
2022-08-26T17:13:34.764Z,97400.34
2022-08-26T17:16:05.303Z,97404.56
2022-08-26T17:18:33.565Z,97404.38
2022-08-26T17:21:02.141Z,97413.94
2022-08-26T17:23:30.571Z,97408.28
2022-08-26T17:25:59.936Z,97407.94
2022-08-26T17:28:27.929Z,97400.63
2022-08-26T17:30:57.238Z,97412.56
2022-08-26T17:33:25.437Z,97413.84
2022-08-26T17:36:31.938Z,97419.88
2022-08-26T17:39:44.868Z,97411.69
2022-08-26T17:42:14.998Z,97417.16
2022-08-26T17:44:43.147Z,97414.50
2022-08-26T17:47:11.930Z,97417.06
2022-08-26T17:49:41.111Z,97410.53
2022-08-26T17:52:11.564Z,97409.75
2022-08-26T17:55:05.344Z,97421.06
2022-08-26T17:57:38.793Z,97412.44
2022-08-26T18:00:11.594Z,97414.31
2022-08-26T18:02:39.689Z,97413.31
2022-08-26T18:05:08.384Z,97409.31
2022-08-26T18:07:43.730Z,97407.00
2022-08-26T18:10:13.285Z,97409.06
2022-08-26T18:12:43.275Z,97399.22
2022-08-26T18:15:11.888Z,97405.44
2022-08-26T18:17:39.913Z,97407.25
2022-08-26T18:20:09.331Z,97415.22
2022-08-26T18:22:37.259Z,97413.50
2022-08-26T18:25:05.985Z,97417.75
2022-08-26T18:27:36.069Z,97416.22
2022-08-26T18:30:05.868Z,97423.69
2022-08-26T18:32:33.890Z,97412.66
2022-08-26T18:35:02.055Z,97419.41
2022-08-26T18:37:31.595Z,97421.59
2022-08-26T18:40:00.466Z,97425.22
2022-08-26T18:42:30.573Z,97413.13
2022-08-26T18:44:59.762Z,97424.38
2022-08-26T18:47:30.077Z,97416.66
2022-08-26T18:49:58.270Z,97422.50
2022-08-26T18:52:26.396Z,97423.16
2022-08-26T18:54:54.290Z,97430.50
2022-08-26T18:57:22.543Z,97417.13
2022-08-26T18:59:50.482Z,97423.50
2022-08-26T19:02:18.603Z,97417.47
2022-08-26T19:04:47.809Z,97415.94
2022-08-26T19:07:15.813Z,97414.25
2022-08-26T19:09:43.735Z,97425.31
2022-08-26T19:12:12.892Z,97416.78
2022-08-26T19:14:40.847Z,97424.03
2022-08-26T19:17:08.619Z,97436.13
2022-08-26T19:19:36.796Z,97428.41
2022-08-26T19:22:06.056Z,97433.34
2022-08-26T19:24:35.642Z,97434.38
2022-08-26T19:27:03.719Z,97438.94
2022-08-26T19:29:34.433Z,97454.63
2022-08-26T19:32:02.861Z,97448.94
2022-08-26T19:34:30.674Z,97445.19
2022-08-26T19:36:58.589Z,97445.38
2022-08-26T19:39:28.812Z,97439.66
2022-08-26T19:41:56.705Z,97437.91
2022-08-26T19:44:39.347Z,97438.28
2022-08-26T19:47:07.639Z,97442.09
2022-08-26T19:49:35.924Z,97442.94
2022-08-26T19:52:04.169Z,97444.81
2022-08-26T19:54:33.388Z,97443.97
2022-08-26T19:57:04.492Z,97446.50
2022-08-26T19:59:36.812Z,97447.00
2022-08-26T20:02:08.486Z,97454.78
2022-08-26T20:04:38.536Z,97455.88
2022-08-26T20:07:06.432Z,97459.56
2022-08-26T20:09:35.634Z,97451.28
2022-08-26T20:12:05.504Z,97453.50
2022-08-26T20:14:33.461Z,97456.53
2022-08-26T20:17:01.334Z,97454.66
2022-08-26T20:19:46.336Z,97450.88
2022-08-26T20:22:14.422Z,97454.91
2022-08-26T20:24:43.664Z,97457.03
2022-08-26T20:27:11.623Z,97461.69
2022-08-26T20:29:39.686Z,97460.91
2022-08-26T20:32:08.236Z,97455.56
2022-08-26T20:34:36.498Z,97452.19
2022-08-26T20:37:04.438Z,97461.88
2022-08-26T20:39:32.288Z,97458.84
2022-08-26T20:42:01.497Z,97455.84
2022-08-26T20:44:29.292Z,97456.97
2022-08-26T20:46:59.182Z,97451.06
2022-08-26T20:49:27.092Z,97449.84
2022-08-26T20:51:55.349Z,97446.91
2022-08-26T20:54:28.224Z,97448.22
2022-08-26T20:56:56.392Z,97450.69
2022-08-26T20:59:26.193Z,97456.19
2022-08-26T21:01:54.023Z,97461.38
2022-08-26T21:04:23.119Z,97470.31
2022-08-26T21:06:52.915Z,97469.44
2022-08-26T21:09:21.206Z,97477.84
2022-08-26T21:11:49.404Z,97468.13
2022-08-26T21:14:17.492Z,97472.25
2022-08-26T21:16:46.920Z,97475.63
2022-08-26T21:19:15.575Z,97474.69
2022-08-26T21:21:44.487Z,97471.78
2022-08-26T21:24:13.101Z,97481.34
2022-08-26T21:26:41.275Z,97490.88
2022-08-26T21:29:09.799Z,97486.47
2022-08-26T21:31:40.970Z,97495.16
2022-08-26T21:34:14.270Z,97494.38
2022-08-26T21:36:42.469Z,97495.22
2022-08-26T21:39:12.091Z,97498.78
2022-08-26T21:41:40.380Z,97494.75
2022-08-26T21:44:08.226Z,97493.91
2022-08-26T21:46:37.418Z,97493.53
2022-08-26T21:49:07.396Z,97487.31
2022-08-26T21:51:37.543Z,97494.25
2022-08-26T21:54:10.702Z,97493.78
2022-08-26T21:56:40.603Z,97499.69
2022-08-26T21:59:08.789Z,97486.69
2022-08-26T22:01:37.768Z,97491.25
2022-08-26T22:04:06.883Z,97491.44
2022-08-26T22:06:38.412Z,97496.59
2022-08-26T22:09:06.244Z,97498.06
2022-08-26T22:11:34.463Z,97499.84
2022-08-26T22:14:02.367Z,97496.22
2022-08-26T22:16:30.236Z,97509.97
2022-08-26T22:18:58.104Z,97505.19
2022-08-26T22:21:27.065Z,97497.72
2022-08-26T22:23:58.166Z,97500.91
2022-08-26T22:26:28.183Z,97493.41
2022-08-26T22:28:59.014Z,97501.63
2022-08-26T22:31:28.129Z,97497.81
2022-08-26T22:34:06.822Z,97501.56
2022-08-26T22:36:34.602Z,97502.22
2022-08-26T22:39:10.441Z,97506.97
2022-08-26T22:41:38.761Z,97511.81
2022-08-26T22:44:06.598Z,97517.16
2022-08-26T22:46:36.799Z,97517.94
2022-08-26T22:49:05.085Z,97515.91
2022-08-26T22:51:33.349Z,97514.03
2022-08-26T22:54:01.455Z,97517.25
2022-08-26T22:56:30.740Z,97509.19
2022-08-26T22:58:58.588Z,97505.72
2022-08-26T23:01:26.895Z,97514.81
2022-08-26T23:03:54.737Z,97509.63
2022-08-26T23:06:22.588Z,97507.16
2022-08-26T23:08:51.925Z,97510.44
2022-08-26T23:11:19.790Z,97512.50
2022-08-26T23:13:48.989Z,97507.59
2022-08-26T23:16:16.850Z,97510.28
2022-08-26T23:18:44.751Z,97509.41
2022-08-26T23:21:12.684Z,97502.94
2022-08-26T23:23:40.820Z,97499.13
2022-08-26T23:26:09.274Z,97496.09
2022-08-26T23:28:37.397Z,97503.72
2022-08-26T23:31:06.978Z,97494.28
2022-08-26T23:33:48.771Z,97489.31
2022-08-26T23:36:17.727Z,97484.16
2022-08-26T23:38:52.524Z,97488.81
2022-08-26T23:41:22.139Z,97493.38
2022-08-26T23:43:49.953Z,97489.75
2022-08-26T23:46:19.104Z,97499.19
2022-08-26T23:48:47.142Z,97493.16
2022-08-26T23:51:32.582Z,97497.00
2022-08-26T23:54:00.441Z,97499.75
2022-08-26T23:56:29.152Z,97494.50
2022-08-26T23:58:57.110Z,97494.00
